Terminal Aerodrome Forecast
Issued by NWS Wilmington, NC

Home | Current Version | Previous Version | Text Only | Print | Product List | Glossary On
Versions: 1 2 3 4 5 6 7 8 9 10 11 12 13 14 15 16 17 18 19 20
000
FTUS42 KILM 131100 CCA
TAFMYR
TAF COR
KMYR 131147Z 1312/1412 VRB02KT P6SM SCT025
     FM131300 21006KT P6SM SCT020
     FM131700 18011KT P6SM VCSH SCT040
     FM132000 20007KT P6SM SCT250=

USA.gov is the U.S. government's official web portal to all federal, state and local government web resources and services.